createdAt,value
2022-11-13T00:00:53.353Z,98.23
2022-11-13T00:02:13.895Z,98.71
2022-11-13T00:03:34.575Z,99.31
2022-11-13T00:04:56.123Z,99.12
2022-11-13T00:06:18.650Z,98.30
2022-11-13T00:07:39.460Z,97.91
2022-11-13T00:08:59.923Z,98.05
2022-11-13T00:10:20.480Z,97.52
2022-11-13T00:11:41.021Z,97.85
2022-11-13T00:13:01.873Z,98.28
2022-11-13T00:14:22.317Z,99.09
2022-11-13T00:15:42.906Z,99.00
2022-11-13T00:17:03.925Z,98.79
2022-11-13T00:18:24.250Z,98.33
2022-11-13T00:19:44.629Z,98.11
2022-11-13T00:21:06.844Z,98.10
2022-11-13T00:22:27.255Z,97.81
2022-11-13T00:23:48.398Z,98.15
2022-11-13T00:25:09.339Z,98.46
2022-11-13T00:26:31.124Z,98.81
2022-11-13T00:27:52.019Z,98.91
2022-11-13T00:29:12.361Z,99.35
2022-11-13T00:30:32.964Z,99.78
2022-11-13T00:31:53.599Z,99.84
2022-11-13T00:33:18.900Z,99.93
2022-11-13T00:34:52.055Z,99.79
2022-11-13T00:36:07.045Z,99.92
2022-11-13T00:37:27.672Z,98.48
2022-11-13T00:38:48.683Z,98.39
2022-11-13T00:40:09.964Z,97.75
2022-11-13T00:41:30.042Z,98.33
2022-11-13T00:42:50.588Z,97.36
2022-11-13T00:44:12.202Z,98.16
2022-11-13T00:45:32.960Z,98.16
2022-11-13T00:46:53.451Z,98.61
2022-11-13T00:48:13.971Z,98.22
2022-11-13T00:49:34.584Z,98.23
2022-11-13T00:50:55.408Z,98.40
2022-11-13T00:52:15.504Z,98.84
2022-11-13T00:53:36.806Z,98.38
2022-11-13T00:54:57.290Z,98.65
2022-11-13T00:56:17.990Z,99.18
2022-11-13T00:57:38.220Z,98.38
2022-11-13T00:58:58.829Z,97.85
2022-11-13T01:00:20.839Z,97.48
2022-11-13T01:01:41.611Z,98.03
2022-11-13T01:03:02.120Z,97.68
2022-11-13T01:04:22.524Z,97.96
2022-11-13T01:05:45.326Z,98.45
2022-11-13T01:07:05.819Z,98.22
2022-11-13T01:08:26.883Z,97.93
2022-11-13T01:09:51.217Z,98.24
2022-11-13T01:11:14.690Z,98.46
2022-11-13T01:12:35.720Z,98.80
2022-11-13T01:13:56.570Z,99.00
2022-11-13T01:15:17.300Z,99.56
2022-11-13T01:16:37.867Z,99.56
2022-11-13T01:17:58.490Z,99.10
2022-11-13T01:19:19.514Z,99.34
2022-11-13T01:20:40.335Z,99.61
2022-11-13T01:22:00.874Z,99.67
2022-11-13T01:23:21.455Z,99.97
2022-11-13T01:24:42.122Z,99.10
2022-11-13T01:26:12.158Z,99.42
2022-11-13T01:27:37.424Z,99.00
2022-11-13T01:28:59.982Z,98.28
2022-11-13T01:30:21.016Z,98.45
2022-11-13T01:31:41.582Z,98.61
2022-11-13T01:33:02.254Z,98.56
2022-11-13T01:34:22.751Z,97.48
2022-11-13T01:35:43.758Z,97.89
2022-11-13T01:37:04.294Z,98.16
2022-11-13T01:38:25.081Z,98.69
2022-11-13T01:39:46.675Z,97.90
2022-11-13T01:41:09.932Z,98.03
2022-11-13T01:42:33.079Z,97.87
2022-11-13T01:43:54.853Z,97.59
2022-11-13T01:45:53.205Z,97.52
2022-11-13T01:47:14.611Z,96.45
2022-11-13T01:48:41.781Z,97.35
2022-11-13T01:50:03.000Z,97.18
2022-11-13T01:51:33.393Z,97.75
2022-11-13T01:52:54.445Z,96.67
2022-11-13T01:55:29.109Z,97.11
2022-11-13T01:56:51.055Z,97.08
2022-11-13T01:58:13.215Z,97.77
2022-11-13T01:59:43.012Z,98.35
2022-11-13T02:01:03.628Z,98.80
2022-11-13T02:02:24.254Z,98.93
2022-11-13T02:03:45.716Z,98.70
2022-11-13T02:05:07.676Z,98.81
2022-11-13T02:06:31.721Z,99.10
2022-11-13T02:07:52.093Z,99.16
2022-11-13T02:09:14.616Z,98.88
2022-11-13T02:10:35.038Z,99.00
2022-11-13T02:11:56.084Z,98.75
2022-11-13T02:13:16.958Z,98.47
2022-11-13T02:14:44.225Z,98.40
2022-11-13T02:16:07.816Z,98.09
2022-11-13T02:17:34.547Z,98.17
2022-11-13T02:18:55.148Z,97.32
2022-11-13T02:20:18.911Z,97.92
2022-11-13T02:23:20.517Z,98.53
2022-11-13T02:24:45.599Z,98.61
2022-11-13T02:26:08.290Z,99.32
2022-11-13T02:27:49.297Z,99.66
2022-11-13T02:29:09.823Z,100.00
2022-11-13T02:30:34.221Z,100.00
2022-11-13T02:31:55.409Z,100.00
2022-11-13T02:33:25.210Z,100.00
2022-11-13T02:34:45.822Z,100.00
2022-11-13T02:36:09.777Z,100.00
2022-11-13T02:37:30.447Z,100.00
2022-11-13T02:38:53.499Z,100.00
2022-11-13T02:40:14.453Z,100.00
2022-11-13T02:41:34.872Z,100.00
2022-11-13T02:42:55.331Z,100.00
2022-11-13T02:44:15.967Z,100.00
2022-11-13T02:45:37.012Z,100.00
2022-11-13T02:46:57.589Z,100.00
2022-11-13T02:48:18.439Z,100.00
2022-11-13T02:49:38.765Z,100.00
2022-11-13T02:50:59.781Z,100.00
2022-11-13T02:52:20.200Z,100.00
2022-11-13T02:53:41.424Z,100.00
2022-11-13T02:55:02.596Z,100.00
2022-11-13T05:58:24.407Z,100.00
2022-11-13T05:59:44.803Z,100.00
2022-11-13T06:01:14.647Z,100.00
2022-11-13T06:02:35.447Z,100.00
2022-11-13T06:03:57.794Z,100.00
2022-11-13T06:05:18.099Z,100.00
2022-11-13T06:06:39.351Z,100.00
2022-11-13T06:07:59.755Z,100.00
2022-11-13T06:09:20.618Z,100.00
2022-11-13T06:10:42.091Z,100.00
2022-11-13T06:12:02.638Z,99.88
2022-11-13T06:13:23.343Z,99.70
2022-11-13T06:14:43.932Z,99.92
2022-11-13T06:16:10.229Z,99.90
2022-11-13T06:17:30.874Z,99.72
2022-11-13T06:18:54.700Z,99.47
2022-11-13T06:20:16.115Z,99.56
2022-11-13T06:21:39.471Z,99.53
2022-11-13T06:23:00.201Z,99.53
2022-11-13T06:24:21.006Z,99.12
2022-11-13T06:25:41.703Z,99.14
2022-11-13T06:27:01.886Z,99.45
2022-11-13T06:28:22.423Z,99.36
2022-11-13T06:29:43.160Z,98.97
2022-11-13T06:31:07.559Z,98.93
2022-11-13T06:32:27.700Z,99.05
2022-11-13T06:33:48.242Z,98.95
2022-11-13T06:35:08.877Z,98.78
2022-11-13T06:36:35.256Z,98.45
2022-11-13T06:37:55.469Z,98.18
2022-11-13T06:39:16.090Z,98.17
2022-11-13T06:41:48.919Z,97.87
2022-11-13T06:43:09.654Z,98.01
2022-11-13T06:44:30.720Z,98.09
2022-11-13T06:45:51.222Z,98.03
2022-11-13T06:47:11.883Z,98.05
2022-11-13T06:48:33.172Z,97.82
2022-11-13T06:49:53.522Z,97.38
2022-11-13T06:51:18.610Z,97.44
2022-11-13T06:52:39.169Z,97.28
2022-11-13T06:53:59.839Z,97.34
2022-11-13T06:55:20.405Z,97.14
2022-11-13T06:56:40.778Z,97.06
2022-11-13T06:58:01.489Z,96.72
2022-11-13T06:59:22.635Z,95.81
2022-11-13T07:00:43.893Z,95.56
2022-11-13T07:02:04.806Z,95.22
2022-11-13T07:03:26.494Z,95.93
2022-11-13T07:04:47.406Z,96.08
2022-11-13T07:06:10.692Z,96.10
2022-11-13T07:07:31.094Z,96.15
2022-11-13T07:08:52.034Z,96.35
2022-11-13T07:10:12.252Z,95.90
2022-11-13T07:11:33.058Z,95.71
2022-11-13T07:12:54.893Z,95.69
2022-11-13T07:14:15.673Z,95.66
2022-11-13T07:15:38.740Z,95.80
2022-11-13T07:17:10.914Z,95.50
2022-11-13T07:18:24.479Z,95.37
2022-11-13T07:19:45.231Z,95.31
2022-11-13T07:21:08.624Z,95.26
2022-11-13T07:22:31.404Z,95.29
2022-11-13T07:23:51.933Z,95.02
2022-11-13T07:25:12.428Z,94.93
2022-11-13T07:26:32.830Z,94.86
2022-11-13T07:27:53.575Z,94.98
2022-11-13T07:29:14.364Z,94.73
2022-11-13T07:30:34.801Z,94.82
2022-11-13T07:31:55.463Z,94.64
2022-11-13T07:33:16.021Z,94.01
2022-11-13T07:34:37.005Z,93.85
2022-11-13T07:35:58.615Z,93.67
2022-11-13T07:37:20.070Z,93.89
2022-11-13T07:38:41.173Z,94.00
2022-11-13T07:40:02.737Z,93.42
2022-11-13T07:41:22.932Z,93.05
2022-11-13T07:42:43.466Z,93.14
2022-11-13T07:44:08.815Z,93.55
2022-11-13T07:45:28.374Z,93.38
2022-11-13T07:46:48.790Z,93.65
2022-11-13T07:48:09.897Z,93.47
2022-11-13T07:49:30.626Z,92.98
2022-11-13T07:50:51.098Z,92.72
2022-11-13T07:52:11.609Z,92.25
2022-11-13T07:53:32.365Z,92.36
2022-11-13T07:54:53.313Z,92.15
2022-11-13T07:56:18.860Z,92.41
2022-11-13T07:57:36.721Z,92.13
2022-11-13T07:58:58.594Z,92.34
2022-11-13T08:00:19.324Z,92.44
2022-11-13T08:01:39.739Z,92.29
2022-11-13T08:03:09.501Z,92.20
2022-11-13T08:04:30.394Z,92.12
2022-11-13T08:05:50.624Z,91.45
2022-11-13T08:07:11.950Z,91.14
2022-11-13T08:08:33.672Z,91.15
2022-11-13T08:09:53.945Z,91.11
2022-11-13T08:11:14.863Z,91.59
2022-11-13T08:12:35.298Z,91.44
2022-11-13T08:13:55.701Z,91.53
2022-11-13T08:15:16.432Z,91.25
2022-11-13T08:16:37.013Z,91.01
2022-11-13T08:17:58.966Z,90.59
2022-11-13T08:19:19.197Z,90.30
2022-11-13T08:20:40.217Z,90.75
2022-11-13T08:22:01.828Z,90.93
2022-11-13T08:23:22.887Z,90.68
2022-11-13T08:24:43.528Z,90.11
2022-11-13T08:26:05.778Z,89.56
2022-11-13T08:27:26.645Z,89.40
2022-11-13T08:28:47.607Z,89.24
2022-11-13T08:30:09.572Z,88.94
2022-11-13T08:31:30.381Z,88.51
2022-11-13T08:32:50.852Z,88.72
2022-11-13T08:34:11.416Z,88.08
2022-11-13T08:35:31.702Z,88.22
2022-11-13T08:36:52.351Z,88.16
2022-11-13T08:38:13.305Z,88.20
2022-11-13T08:39:33.737Z,88.52
2022-11-13T08:41:03.246Z,88.13
2022-11-13T08:42:22.328Z,87.75
2022-11-13T08:43:43.036Z,87.51
2022-11-13T08:45:04.523Z,87.70
2022-11-13T08:46:25.339Z,87.85
2022-11-13T08:47:46.853Z,87.87
2022-11-13T08:49:07.544Z,87.53
2022-11-13T08:50:29.183Z,87.57
2022-11-13T08:51:50.424Z,87.75
2022-11-13T08:53:11.228Z,87.46
2022-11-13T08:54:31.384Z,86.91
2022-11-13T08:55:52.075Z,86.80
2022-11-13T08:57:12.401Z,86.82
2022-11-13T08:58:32.991Z,86.92
2022-11-13T08:59:53.824Z,87.13
2022-11-13T09:01:14.406Z,86.57
2022-11-13T09:02:34.742Z,86.15
2022-11-13T09:03:55.516Z,85.57
2022-11-13T09:05:15.979Z,85.32
2022-11-13T09:06:36.308Z,85.51
2022-11-13T09:07:58.752Z,85.65
2022-11-13T09:09:19.858Z,85.70
2022-11-13T09:10:40.225Z,85.50
2022-11-13T09:12:00.891Z,86.02
2022-11-13T09:13:21.733Z,85.93
2022-11-13T09:14:42.412Z,85.57
2022-11-13T09:16:03.068Z,85.80
2022-11-13T09:17:23.426Z,85.66
2022-11-13T09:18:43.740Z,85.91
2022-11-13T09:20:07.675Z,85.40
2022-11-13T09:21:28.279Z,85.42
2022-11-13T09:22:48.891Z,85.28
2022-11-13T09:24:09.809Z,84.99
2022-11-13T09:25:37.070Z,84.85
2022-11-13T09:26:53.656Z,84.22
2022-11-13T09:28:14.300Z,83.50
2022-11-13T09:29:34.809Z,83.64
2022-11-13T09:30:55.525Z,83.51
2022-11-13T09:32:16.209Z,82.56
2022-11-13T09:33:36.894Z,82.94
2022-11-13T09:34:57.683Z,82.99
2022-11-13T09:36:18.212Z,83.94
2022-11-13T09:37:38.678Z,83.98
2022-11-13T09:39:00.000Z,83.87
2022-11-13T09:40:24.874Z,83.90
2022-11-13T09:41:48.905Z,83.70
2022-11-13T09:43:13.206Z,84.01
2022-11-13T09:44:47.340Z,84.22
2022-11-13T09:46:40.970Z,84.25
2022-11-13T09:48:22.345Z,84.10
2022-11-13T09:49:46.822Z,84.00
2022-11-13T09:51:13.782Z,83.79
2022-11-13T09:52:37.660Z,83.35
2022-11-13T09:54:02.734Z,82.77
2022-11-13T09:55:30.525Z,82.73
2022-11-13T09:57:16.108Z,82.99
2022-11-13T09:59:01.007Z,83.29
2022-11-13T10:00:22.580Z,82.98
2022-11-13T10:01:56.129Z,82.87
2022-11-13T10:03:59.875Z,82.44
2022-11-13T10:05:15.995Z,81.83
2022-11-13T10:06:52.309Z,81.99
2022-11-13T10:08:16.839Z,82.10
2022-11-13T10:09:49.705Z,82.41
2022-11-13T10:11:22.470Z,82.20
2022-11-13T10:12:45.616Z,82.36
2022-11-13T10:14:15.587Z,82.17
2022-11-13T10:15:38.631Z,81.55
2022-11-13T10:17:05.438Z,81.02
2022-11-13T10:18:33.302Z,81.04
2022-11-13T10:20:03.053Z,80.61
2022-11-13T10:21:39.440Z,80.08
2022-11-13T10:23:09.530Z,80.35
2022-11-13T10:24:33.342Z,80.47
2022-11-13T10:25:56.221Z,80.65
2022-11-13T10:27:17.058Z,80.53
2022-11-13T10:28:53.996Z,80.64
2022-11-13T10:30:01.646Z,80.35
2022-11-13T10:31:22.082Z,80.71
2022-11-13T10:32:43.571Z,80.83
2022-11-13T10:34:05.260Z,80.48
2022-11-13T10:35:29.627Z,80.78
2022-11-13T10:36:56.534Z,80.84
2022-11-13T10:38:27.570Z,81.60
2022-11-13T10:39:48.416Z,80.02
2022-11-13T10:41:14.992Z,80.24
2022-11-13T10:42:40.600Z,79.72
2022-11-13T10:44:09.604Z,78.80
2022-11-13T10:45:30.883Z,78.15
2022-11-13T10:46:53.691Z,78.23
2022-11-13T10:48:30.687Z,78.98
2022-11-13T10:49:53.137Z,76.75
2022-11-13T10:51:28.748Z,78.11
2022-11-13T10:52:53.753Z,78.39
2022-11-13T10:54:29.434Z,78.57
2022-11-13T10:55:56.031Z,79.03
2022-11-13T10:57:32.079Z,77.82
2022-11-13T10:59:10.531Z,78.69
2022-11-13T11:00:34.607Z,76.13
2022-11-13T11:01:55.495Z,78.65
2022-11-13T11:03:21.432Z,76.95
2022-11-13T11:04:42.118Z,76.50
2022-11-13T11:06:04.576Z,77.53
2022-11-13T11:07:25.542Z,77.30
2022-11-13T11:08:46.952Z,78.89
2022-11-13T11:10:30.220Z,76.65
2022-11-13T11:12:06.707Z,75.88
2022-11-13T11:13:27.587Z,76.45
2022-11-13T11:15:00.549Z,75.76
2022-11-13T11:16:24.296Z,76.22
2022-11-13T11:17:54.281Z,78.21
2022-11-13T11:19:17.163Z,76.06
2022-11-13T11:20:44.202Z,75.15
2022-11-13T11:22:09.279Z,75.91
2022-11-13T11:23:38.307Z,76.01
2022-11-13T11:25:35.194Z,77.69
2022-11-13T11:26:59.588Z,78.34
2022-11-13T11:28:32.633Z,76.52
2022-11-13T11:31:23.614Z,74.55
2022-11-13T11:34:19.149Z,75.11
2022-11-13T11:35:58.075Z,75.46
2022-11-13T11:37:25.251Z,74.71
2022-11-13T11:38:52.882Z,79.08
2022-11-13T11:40:34.348Z,75.70
2022-11-13T11:42:10.272Z,74.26
2022-11-13T11:43:40.053Z,75.05
2022-11-13T11:45:07.106Z,76.59
2022-11-13T11:46:29.144Z,75.31
2022-11-13T11:47:49.951Z,76.62
2022-11-13T11:49:11.106Z,77.60
2022-11-13T11:50:45.835Z,78.56
2022-11-13T11:52:33.959Z,80.13
2022-11-13T11:53:57.816Z,74.21
2022-11-13T11:55:27.524Z,75.42
2022-11-13T11:56:54.471Z,72.57
2022-11-13T11:58:47.590Z,72.24
2022-11-13T12:00:19.567Z,73.88
2022-11-13T12:02:10.766Z,75.19
2022-11-13T12:04:02.512Z,75.63
2022-11-13T12:05:43.287Z,77.50
2022-11-13T12:07:22.942Z,75.91
2022-11-13T14:30:43.593Z,81.95
2022-11-13T14:32:13.949Z,82.17
2022-11-13T14:33:44.256Z,82.34
2022-11-13T14:35:06.189Z,82.58
2022-11-13T14:36:32.490Z,82.95
2022-11-13T14:37:54.401Z,83.40
2022-11-13T14:39:23.903Z,83.40
2022-11-13T14:40:49.359Z,83.63
2022-11-13T14:42:22.927Z,83.35
2022-11-13T14:43:47.807Z,83.49
2022-11-13T14:45:17.839Z,83.57
2022-11-13T14:46:43.889Z,84.06
2022-11-13T14:48:23.173Z,84.14
2022-11-13T14:49:56.899Z,84.44
2022-11-13T14:51:29.595Z,84.93
2022-11-13T14:52:59.408Z,85.05
2022-11-13T14:55:08.000Z,85.14
2022-11-13T14:56:03.028Z,85.31
2022-11-13T14:57:23.216Z,85.44
2022-11-13T14:58:46.399Z,85.54
2022-11-13T15:00:18.757Z,85.59
2022-11-13T15:01:40.037Z,85.68
2022-11-13T15:03:02.106Z,85.97
2022-11-13T15:04:24.261Z,86.10
2022-11-13T15:05:44.593Z,86.29
2022-11-13T15:07:25.878Z,86.49
2022-11-13T15:08:58.371Z,86.70
2022-11-13T15:10:21.561Z,86.86
2022-11-13T15:11:43.501Z,87.02
2022-11-13T15:13:10.790Z,87.09
2022-11-13T15:14:33.174Z,87.40
2022-11-13T15:15:53.901Z,87.52
2022-11-13T15:17:17.771Z,87.57
2022-11-13T15:18:38.431Z,87.61
2022-11-13T15:19:59.373Z,87.61
2022-11-13T15:21:20.232Z,87.75
2022-11-13T15:22:41.321Z,87.88
2022-11-13T15:24:02.188Z,87.97
2022-11-13T15:25:24.680Z,87.93
2022-11-13T15:26:46.336Z,87.85
2022-11-13T15:28:09.712Z,87.96
2022-11-13T15:29:29.763Z,88.00
2022-11-13T15:30:51.486Z,88.13
2022-11-13T15:32:14.862Z,88.32
2022-11-13T15:33:35.347Z,88.39
2022-11-13T15:34:55.671Z,88.48
2022-11-13T15:36:16.675Z,88.59
2022-11-13T15:37:37.217Z,88.62
2022-11-13T15:39:01.328Z,88.73
2022-11-13T15:40:21.172Z,89.00
2022-11-13T15:41:41.640Z,89.10
2022-11-13T15:43:03.408Z,89.15
2022-11-13T15:44:24.046Z,89.43
2022-11-13T15:45:44.687Z,89.57
2022-11-13T15:47:25.525Z,89.66
2022-11-13T15:48:47.371Z,89.89
2022-11-13T15:50:15.511Z,90.23
2022-11-13T15:51:37.961Z,90.15
2022-11-13T15:53:04.848Z,90.14
2022-11-13T15:54:28.341Z,90.49
2022-11-13T15:55:49.057Z,90.43
2022-11-13T15:57:20.930Z,90.25
2022-11-13T15:58:41.857Z,90.42
2022-11-13T16:00:02.977Z,90.32
2022-11-13T16:01:24.164Z,90.21
2022-11-13T16:02:45.530Z,90.45
2022-11-13T16:04:07.342Z,90.56
2022-11-13T16:05:28.194Z,90.68
2022-11-13T16:06:48.764Z,90.91
2022-11-13T16:08:13.329Z,90.98
2022-11-13T16:11:20.437Z,91.46
2022-11-13T16:12:41.897Z,91.49
2022-11-13T16:14:23.413Z,91.53
2022-11-13T16:15:42.396Z,91.34
2022-11-13T16:17:11.881Z,91.54
2022-11-13T16:18:32.246Z,91.85
2022-11-13T16:19:55.573Z,92.03
2022-11-13T16:21:18.021Z,92.04
2022-11-13T16:22:39.454Z,92.20
2022-11-13T16:24:00.386Z,92.24
2022-11-13T16:25:21.711Z,92.27
2022-11-13T16:26:46.402Z,92.15
2022-11-13T16:28:17.374Z,92.09
2022-11-13T16:29:38.149Z,92.46
2022-11-13T16:30:58.731Z,92.58
2022-11-13T16:32:19.335Z,92.46
2022-11-13T16:33:40.333Z,92.36
2022-11-13T16:35:00.767Z,92.44
2022-11-13T16:36:22.018Z,92.76
2022-11-13T16:37:42.333Z,93.08
2022-11-13T16:39:03.681Z,93.38
2022-11-13T16:40:26.190Z,94.60
2022-11-13T16:41:47.780Z,93.71
2022-11-13T16:43:10.623Z,95.70
2022-11-13T16:44:31.822Z,93.93
2022-11-13T16:45:52.578Z,93.14
2022-11-13T16:47:19.255Z,92.29
2022-11-13T16:48:39.855Z,92.61
2022-11-13T16:50:00.700Z,92.71
2022-11-13T16:51:22.091Z,95.45
2022-11-13T16:52:43.714Z,92.47
2022-11-13T16:54:05.414Z,93.05
2022-11-13T16:55:27.084Z,93.46
2022-11-13T16:56:47.848Z,94.11
2022-11-13T16:58:12.757Z,96.54
2022-11-13T16:59:33.598Z,92.02
2022-11-13T17:00:59.779Z,91.93
2022-11-13T17:02:17.834Z,93.06
2022-11-13T17:03:39.750Z,92.84
2022-11-13T17:05:01.331Z,93.47
2022-11-13T17:06:28.321Z,93.25
2022-11-13T17:07:51.745Z,95.28
2022-11-13T17:09:13.207Z,93.51
2022-11-13T17:10:33.651Z,93.16
2022-11-13T17:11:55.137Z,93.14
2022-11-13T17:13:17.005Z,93.00
2022-11-13T17:14:38.327Z,93.38
2022-11-13T17:16:01.241Z,93.97
2022-11-13T17:17:24.092Z,94.35
2022-11-13T17:18:48.172Z,94.66
2022-11-13T17:20:10.683Z,95.08
2022-11-13T17:21:31.356Z,94.92
2022-11-13T17:22:53.894Z,95.06
2022-11-13T17:24:15.415Z,95.43
2022-11-13T17:25:36.309Z,95.63
2022-11-13T17:26:57.009Z,95.83
2022-11-13T17:28:20.855Z,96.29
2022-11-13T17:29:42.168Z,96.04
2022-11-13T17:31:06.306Z,95.12
2022-11-13T17:32:26.470Z,95.29
2022-11-13T17:33:46.841Z,95.67
2022-11-13T17:35:10.538Z,95.69
2022-11-13T17:36:31.012Z,96.14
2022-11-13T17:37:52.041Z,96.63
2022-11-13T17:39:12.672Z,96.85
2022-11-13T17:40:34.148Z,96.74
2022-11-13T17:41:56.160Z,96.88
2022-11-13T17:43:16.798Z,97.00
2022-11-13T17:44:37.279Z,97.01
2022-11-13T17:45:58.012Z,97.06
2022-11-13T17:47:18.568Z,96.91
2022-11-13T17:48:40.630Z,96.86
2022-11-13T17:50:07.090Z,96.96
2022-11-13T17:51:24.451Z,97.13
2022-11-13T17:52:44.817Z,97.21
2022-11-13T17:54:06.605Z,97.25
2022-11-13T17:55:30.371Z,97.37
2022-11-13T17:56:51.684Z,97.57
2022-11-13T17:58:12.056Z,97.74
2022-11-13T17:59:32.321Z,97.73
2022-11-13T18:00:55.891Z,97.98
2022-11-13T18:02:17.696Z,98.16
2022-11-13T18:03:38.861Z,97.99
2022-11-13T18:04:59.315Z,97.98
2022-11-13T18:06:20.595Z,97.98
2022-11-13T18:07:41.993Z,98.03
2022-11-13T18:09:05.943Z,98.17
2022-11-13T18:10:27.186Z,98.04
2022-11-13T18:11:48.256Z,98.05
2022-11-13T18:13:09.573Z,98.31
2022-11-13T18:14:32.485Z,98.61
2022-11-13T18:15:53.074Z,98.84
2022-11-13T18:17:13.310Z,99.00
2022-11-13T18:18:34.327Z,98.94
2022-11-13T18:20:00.373Z,98.84
2022-11-13T18:21:23.491Z,98.87
2022-11-13T18:22:49.052Z,98.92
2022-11-13T18:24:13.257Z,98.95
2022-11-13T18:25:39.635Z,98.86
2022-11-13T18:27:00.532Z,98.98
2022-11-13T18:28:21.164Z,99.03
2022-11-13T18:29:41.506Z,99.00
2022-11-13T18:31:09.023Z,99.18
2022-11-13T18:32:29.778Z,99.28
2022-11-13T18:33:50.708Z,99.18
2022-11-13T18:35:11.094Z,99.06
2022-11-13T18:36:32.922Z,99.22
2022-11-13T18:37:55.293Z,99.25
2022-11-13T18:39:16.882Z,99.38
2022-11-13T18:40:37.674Z,99.33
2022-11-13T18:41:59.257Z,99.24
2022-11-13T18:43:19.803Z,99.31
2022-11-13T18:44:40.436Z,99.28
2022-11-13T18:46:06.909Z,99.25
2022-11-13T18:47:27.596Z,99.23
2022-11-13T18:48:49.316Z,98.98
2022-11-13T18:50:10.558Z,99.02
2022-11-13T18:51:31.396Z,98.96
2022-11-13T18:52:55.201Z,98.94
2022-11-13T18:54:15.552Z,99.02
2022-11-13T18:55:36.615Z,98.67
2022-11-13T18:56:58.209Z,98.64
2022-11-13T18:58:19.107Z,98.84
2022-11-13T18:59:39.969Z,98.96
2022-11-13T19:01:20.548Z,99.08
2022-11-13T19:02:37.748Z,99.11
2022-11-13T19:05:25.969Z,99.24
2022-11-13T19:06:46.846Z,99.44
2022-11-13T19:08:07.870Z,99.47
2022-11-13T19:09:29.002Z,99.59
2022-11-13T19:10:49.888Z,99.53
2022-11-13T19:12:10.930Z,99.58
2022-11-13T19:13:32.831Z,99.69
2022-11-13T19:14:53.384Z,99.55
2022-11-13T19:16:17.062Z,99.52
2022-11-13T19:17:38.139Z,99.50
2022-11-13T19:19:01.840Z,99.34
2022-11-13T19:20:22.669Z,99.27
2022-11-13T19:21:44.043Z,99.18
2022-11-13T19:23:09.221Z,99.05
2022-11-13T19:24:28.309Z,99.04
2022-11-13T19:25:49.925Z,98.82
2022-11-13T19:27:10.798Z,98.63
2022-11-13T19:28:31.878Z,98.67
2022-11-13T19:29:52.173Z,98.78
2022-11-13T19:31:18.549Z,98.91
2022-11-13T19:32:39.923Z,99.09
2022-11-13T19:34:03.697Z,99.11
2022-11-13T19:35:26.837Z,99.28
2022-11-13T19:36:47.680Z,99.28
2022-11-13T19:38:08.016Z,99.11
2022-11-13T19:39:28.726Z,99.20
2022-11-13T19:40:51.336Z,99.67
2022-11-13T19:42:11.839Z,99.19
2022-11-13T19:43:33.940Z,99.28
2022-11-13T19:44:54.575Z,99.46
2022-11-13T19:46:17.730Z,99.31
2022-11-13T19:47:41.356Z,99.16
2022-11-13T19:49:01.735Z,99.27
2022-11-13T19:50:22.597Z,99.26
2022-11-13T19:51:44.145Z,99.35
2022-11-13T19:53:05.609Z,99.81
2022-11-13T19:54:26.444Z,99.14
2022-11-13T19:55:54.401Z,99.17
2022-11-13T19:57:14.973Z,99.15
2022-11-13T19:58:36.179Z,98.97
2022-11-13T19:59:56.679Z,98.89
2022-11-13T20:01:25.830Z,98.83
2022-11-13T20:02:47.296Z,98.70
2022-11-13T20:04:11.512Z,98.67
2022-11-13T20:05:35.850Z,98.63
2022-11-13T20:06:57.815Z,98.56
2022-11-13T20:09:33.269Z,98.92
2022-11-13T20:10:54.263Z,98.95
2022-11-13T20:12:15.707Z,99.07
2022-11-13T20:13:38.875Z,99.21
2022-11-13T20:14:59.649Z,99.22
2022-11-13T20:16:19.917Z,99.27
2022-11-13T20:17:41.559Z,99.35
2022-11-13T20:19:02.240Z,99.40
2022-11-13T20:20:22.856Z,99.59
2022-11-13T20:21:44.635Z,99.66
2022-11-13T20:23:06.678Z,99.66
2022-11-13T20:24:28.912Z,99.66
2022-11-13T20:25:59.948Z,99.87
2022-11-13T20:27:20.561Z,99.88
2022-11-13T20:28:41.056Z,100.00
2022-11-13T20:30:01.677Z,100.00
2022-11-13T20:31:25.286Z,100.00
2022-11-13T20:32:45.640Z,100.00
2022-11-13T20:34:07.282Z,100.00
2022-11-13T20:35:28.107Z,100.00
2022-11-13T20:36:49.241Z,100.00
2022-11-13T20:38:10.098Z,100.00
2022-11-13T20:39:31.694Z,100.00
2022-11-13T20:40:52.676Z,100.00
2022-11-13T20:42:13.544Z,100.00
2022-11-13T20:43:33.996Z,100.00
2022-11-13T20:44:58.525Z,100.00
2022-11-13T20:46:20.459Z,100.00
2022-11-13T20:47:40.823Z,100.00
2022-11-13T20:49:01.582Z,100.00
2022-11-13T20:50:25.355Z,100.00
2022-11-13T20:51:45.810Z,100.00
2022-11-13T20:53:06.287Z,100.00
2022-11-13T20:54:27.126Z,100.00
2022-11-13T20:56:00.194Z,100.00
2022-11-13T20:57:16.925Z,100.00
2022-11-13T20:58:38.346Z,100.00
2022-11-13T20:59:59.454Z,100.00
2022-11-13T21:01:22.940Z,100.00
2022-11-13T21:02:43.394Z,100.00
2022-11-13T21:04:04.231Z,100.00
2022-11-13T21:05:26.148Z,100.00
2022-11-13T21:06:47.820Z,100.00
2022-11-13T21:08:11.306Z,100.00
2022-11-13T21:09:32.253Z,100.00
2022-11-13T21:10:53.225Z,100.00
2022-11-13T21:12:14.776Z,100.00
2022-11-13T21:13:35.320Z,100.00
2022-11-13T21:14:56.644Z,100.00
2022-11-13T21:16:21.122Z,100.00
2022-11-13T21:17:41.736Z,100.00
2022-11-13T21:19:02.517Z,100.00
2022-11-13T21:20:24.174Z,100.00
2022-11-13T21:21:45.668Z,100.00
2022-11-13T21:23:06.071Z,100.00
2022-11-13T21:24:26.521Z,100.00
2022-11-13T21:25:47.182Z,100.00
2022-11-13T21:27:09.729Z,100.00
2022-11-13T21:28:33.483Z,100.00
2022-11-13T21:29:53.523Z,100.00
2022-11-13T21:31:17.564Z,100.00
2022-11-13T21:32:38.438Z,100.00
2022-11-13T21:33:58.722Z,100.00
2022-11-13T21:35:22.739Z,100.00
2022-11-13T21:36:42.187Z,100.00
2022-11-13T21:38:04.147Z,100.00
2022-11-13T21:39:24.897Z,100.00
2022-11-13T21:40:45.486Z,100.00
2022-11-13T21:42:06.103Z,100.00
2022-11-13T21:43:27.297Z,100.00
2022-11-13T21:44:48.707Z,100.00
2022-11-13T21:46:09.676Z,100.00
2022-11-13T21:47:30.105Z,100.00
2022-11-13T21:48:59.994Z,100.00
2022-11-13T21:50:20.173Z,99.91
2022-11-13T21:51:42.775Z,100.00
2022-11-13T21:53:03.396Z,99.76
2022-11-13T21:54:23.761Z,99.20
2022-11-13T21:55:50.808Z,98.87
2022-11-13T21:57:12.367Z,98.70
2022-11-13T21:58:35.545Z,98.39
2022-11-13T21:59:56.312Z,98.00
2022-11-13T22:01:18.822Z,97.71
2022-11-13T22:02:39.462Z,97.53
2022-11-13T22:04:00.491Z,97.39
2022-11-13T22:05:20.865Z,97.38
2022-11-13T22:06:45.122Z,97.19
2022-11-13T22:08:05.993Z,96.99
2022-11-13T22:09:26.467Z,97.01
2022-11-13T22:10:46.934Z,96.79
2022-11-13T22:12:08.818Z,96.58
2022-11-13T22:13:30.164Z,97.05
2022-11-13T22:14:50.808Z,97.08
2022-11-13T22:16:12.071Z,96.74
2022-11-13T22:17:32.787Z,96.72
2022-11-13T22:18:55.445Z,96.89
2022-11-13T22:20:16.759Z,97.08
2022-11-13T22:21:37.850Z,96.66
2022-11-13T22:22:57.990Z,96.44
2022-11-13T22:24:18.820Z,96.50
2022-11-13T22:25:39.549Z,96.72
2022-11-13T22:26:59.759Z,96.57
2022-11-13T22:28:20.627Z,96.22
2022-11-13T22:29:41.034Z,96.36
2022-11-13T22:31:02.058Z,96.50
2022-11-13T22:32:22.764Z,96.68
2022-11-13T22:33:47.796Z,96.78
2022-11-13T22:35:07.437Z,97.09
2022-11-13T22:36:33.873Z,97.40
2022-11-13T22:37:55.876Z,97.36
2022-11-13T22:39:16.713Z,97.42
2022-11-13T22:40:38.735Z,97.59
2022-11-13T22:41:58.967Z,97.94
2022-11-13T22:43:19.602Z,97.86
2022-11-13T22:44:54.869Z,97.78
2022-11-13T22:46:08.049Z,97.78
2022-11-13T22:47:28.745Z,97.86
2022-11-13T22:48:51.686Z,97.72
2022-11-13T22:50:13.483Z,97.62
2022-11-13T22:51:37.745Z,97.57
2022-11-13T22:52:58.303Z,97.55
2022-11-13T22:54:18.779Z,97.59
2022-11-13T22:55:40.566Z,97.46
2022-11-13T22:57:00.978Z,97.34
2022-11-13T22:58:21.451Z,97.25
2022-11-13T22:59:42.328Z,97.31
2022-11-13T23:01:08.949Z,97.28
2022-11-13T23:02:29.050Z,97.50
2022-11-13T23:03:50.983Z,97.39
2022-11-13T23:05:11.895Z,97.47
2022-11-13T23:06:34.822Z,97.41
2022-11-13T23:07:54.987Z,97.30
2022-11-13T23:09:15.622Z,97.17
2022-11-13T23:10:36.185Z,97.15
2022-11-13T23:11:56.751Z,97.23
2022-11-13T23:13:17.296Z,97.16
2022-11-13T23:14:37.807Z,97.26
2022-11-13T23:15:58.724Z,97.13
2022-11-13T23:17:18.893Z,97.09
2022-11-13T23:18:40.373Z,96.96
2022-11-13T23:20:01.245Z,96.95
2022-11-13T23:21:23.493Z,97.09